Time;durP1;ratioP1;P1;durP2;ratioP2;P2;SDS_P1;SDS_P2;PMS_P1;PMS_P2;Temp;Humidity;BMP_temperature;BMP_pressure;BME280_temperature;BME280_humidity;BME280_pressure;Samples;Min_cycle;Max_cycle;Signal;HPM_P1;HPM_P2
2021/04/22 00:00:23;;;;;;;9.60;8.70;;;;;;;12.56;56.91;95597.00;4991494;28;20195;-86
2021/04/22 00:02:52;;;;;;;9.30;8.40;;;;;;;12.59;56.42;95594.84;5007779;28;20199;-83
2021/04/22 00:05:27;;;;;;;9.30;8.40;;;;;;;12.55;56.71;95596.22;5011242;28;20285;-84
2021/04/22 00:10:43;;;;;;;10.20;8.90;;;;;;;12.50;56.90;95584.88;4988155;28;20227;-84
2021/04/22 00:13:12;;;;;;;10.00;9.00;;;;;;;12.48;56.97;95582.47;5011286;28;20193;-83
2021/04/22 00:15:38;;;;;;;9.40;8.50;;;;;;;12.49;56.89;95581.50;5007917;28;20219;-83
2021/04/22 00:18:06;;;;;;;9.13;8.23;;;;;;;12.47;56.77;95580.88;4993922;28;20196;-86
2021/04/22 00:20:36;;;;;;;8.87;8.07;;;;;;;12.36;57.24;95571.84;5007843;28;20195;-86
2021/04/22 00:23:06;;;;;;;9.37;8.33;;;;;;;12.32;57.38;95572.41;4993099;28;20207;-86
2021/04/22 00:25:46;;;;;;;9.20;7.80;;;;;;;12.36;56.96;95571.84;5011090;28;20250;-84
2021/04/22 00:28:14;;;;;;;9.17;8.03;;;;;;;12.41;57.13;95564.34;5008634;28;20198;-84
2021/04/22 00:30:41;;;;;;;10.13;8.80;;;;;;;12.44;56.67;95568.34;4998637;28;20675;-86
2021/04/22 00:33:11;;;;;;;10.23;8.50;;;;;;;12.42;57.49;95570.31;5021485;28;20294;-86
2021/04/22 00:35:37;;;;;;;9.50;8.53;;;;;;;12.44;57.32;95568.34;5009762;28;20218;-84
2021/04/22 00:38:04;;;;;;;9.00;8.17;;;;;;;12.44;57.45;95571.72;5008590;28;20377;-84
2021/04/22 00:40:31;;;;;;;9.40;8.40;;;;;;;12.50;57.25;95564.22;4992822;28;20218;-83
2021/04/22 00:42:59;;;;;;;9.60;8.70;;;;;;;12.45;57.04;95560.41;5007644;28;20198;-82
2021/04/22 00:45:28;;;;;;;9.67;8.77;;;;;;;12.38;58.22;95556.97;5030252;28;20368;-84
2021/04/22 00:47:56;;;;;;;9.77;8.87;;;;;;;12.25;58.50;95556.88;4991417;28;20902;-83
2021/04/22 00:50:25;;;;;;;10.50;8.47;;;;;;;12.36;57.79;95545.22;4991166;28;20286;-83
2021/04/22 00:52:53;;;;;;;9.87;8.87;;;;;;;12.31;58.57;95545.00;4991387;28;20222;-87
2021/04/22 00:55:19;;;;;;;9.57;8.70;;;;;;;12.36;58.83;95552.97;4991171;28;20227;-87
2021/04/22 00:57:46;;;;;;;10.33;9.13;;;;;;;12.40;60.10;95549.84;5011246;28;20228;-86
2021/04/22 01:00:15;;;;;;;9.87;8.87;;;;;;;12.16;59.77;95533.97;5011722;28;20202;-84
2021/04/22 01:02:42;;;;;;;9.87;8.87;;;;;;;12.27;59.81;95529.09;4994391;28;20204;-85
2021/04/22 01:05:09;;;;;;;9.53;8.50;;;;;;;12.38;60.05;95533.72;5011115;28;20206;-84
2021/04/22 01:07:37;;;;;;;9.17;8.27;;;;;;;12.51;59.46;95529.66;4993276;28;20227;-84
2021/04/22 01:10:04;;;;;;;9.40;8.50;;;;;;;12.56;59.47;95532.44;5002462;28;20231;-84
2021/04/22 01:12:30;;;;;;;9.53;8.53;;;;;;;12.61;58.49;95543.00;4993820;28;20204;-83
2021/04/22 01:14:56;;;;;;;8.73;7.93;;;;;;;12.65;58.82;95554.56;5001506;28;20230;-85
2021/04/22 01:17:22;;;;;;;9.07;8.17;;;;;;;12.65;59.19;95564.91;5009661;28;20238;-85
2021/04/22 01:19:49;;;;;;;9.53;8.63;;;;;;;12.55;59.33;95583.28;4991122;28;20214;-84
2021/04/22 01:22:15;;;;;;;9.10;8.30;;;;;;;12.45;59.24;95582.84;5007076;28;20205;-87
2021/04/22 01:24:41;;;;;;;13.13;8.30;;;;;;;12.42;59.14;95578.06;5010964;28;20341;-86
2021/04/22 01:27:09;;;;;;;9.07;8.17;;;;;;;12.38;59.04;95574.25;5009405;28;20369;-84
2021/04/22 01:29:35;;;;;;;9.27;8.37;;;;;;;12.38;58.36;95571.66;5010687;28;20267;-82
2021/04/22 01:32:01;;;;;;;9.07;8.00;;;;;;;12.32;58.24;95567.25;5018746;28;20212;-83
2021/04/22 01:34:27;;;;;;;9.07;8.17;;;;;;;12.32;58.15;95573.19;5010997;28;20215;-82
2021/04/22 01:36:54;;;;;;;8.30;7.50;;;;;;;12.36;57.47;95579.59;4993833;28;20219;-83
2021/04/22 01:39:21;;;;;;;8.67;7.77;;;;;;;12.44;57.17;95583.84;5003901;28;20547;-86
2021/04/22 01:41:47;;;;;;;7.90;7.00;;;;;;;12.48;56.71;95582.47;5000164;28;20286;-84
2021/04/22 01:44:13;;;;;;;7.37;6.67;;;;;;;12.45;56.78;95577.69;5031292;28;20202;-83
2021/04/22 01:46:39;;;;;;;6.80;6.13;;;;;;;12.36;56.11;95568.47;5023853;28;20230;-84
2021/04/22 01:49:05;;;;;;;6.23;5.63;;;;;;;12.35;56.27;95566.88;4997659;28;20199;-84
2021/04/22 01:51:31;;;;;;;5.50;4.80;;;;;;;12.34;56.24;95576.41;5004144;28;20230;-83
2021/04/22 01:53:58;;;;;;;4.90;4.50;;;;;;;12.43;55.86;95572.69;5014634;28;20238;-83
2021/04/22 01:56:25;;;;;;;4.93;4.43;;;;;;;12.59;55.73;95565.66;5007042;28;20215;-84
2021/04/22 01:58:51;;;;;;;5.00;4.60;;;;;;;12.63;55.58;95556.53;4995879;28;20850;-85
2021/04/22 02:01:17;;;;;;;6.63;4.63;;;;;;;12.76;55.23;95559.19;4996389;28;20196;-84
2021/04/22 02:03:49;;;;;;;5.00;4.60;;;;;;;12.82;55.24;95560.22;5010559;28;20290;-85
2021/04/22 02:06:16;;;;;;;4.93;4.43;;;;;;;12.89;55.27;95564.44;5006386;28;20270;-82
2021/04/22 02:08:44;;;;;;;5.20;4.67;;;;;;;12.90;55.37;95553.09;4995360;28;20225;-82
2021/04/22 02:11:11;;;;;;;5.30;4.80;;;;;;;12.95;55.34;95562.88;5002841;28;20570;-84
2021/04/22 02:13:38;;;;;;;5.07;4.57;;;;;;;12.99;55.13;95556.34;5014645;28;20206;-85
2021/04/22 02:16:05;;;;;;;6.43;4.97;;;;;;;13.01;55.24;95552.56;5000792;28;20615;-85
2021/04/22 02:18:31;;;;;;;6.00;4.70;;;;;;;13.06;55.18;95555.38;4995821;28;20209;-85
2021/04/22 02:20:57;;;;;;;5.20;4.60;;;;;;;13.09;55.22;95549.00;4995624;28;20214;-85
2021/04/22 02:23:25;;;;;;;4.70;4.30;;;;;;;13.09;54.85;95549.00;4995014;28;20207;-84
2021/04/22 02:25:51;;;;;;;4.63;4.23;;;;;;;13.11;53.81;95549.63;5004752;28;20195;-86
2021/04/22 02:28:17;;;;;;;5.00;4.60;;;;;;;13.13;53.76;95550.22;5012991;28;20294;-86
2021/04/22 02:30:45;;;;;;;5.13;4.63;;;;;;;13.12;53.53;95546.03;5002945;28;20654;-86
2021/04/22 02:33:13;;;;;;;5.07;4.57;;;;;;;13.07;53.38;95556.97;5017192;28;20655;-87
2021/04/22 02:35:41;;;;;;;5.00;4.60;;;;;;;13.04;53.81;95559.16;5014372;28;20222;-84
2021/04/22 02:38:10;;;;;;;5.20;4.70;;;;;;;13.04;53.64;95553.97;5012928;28;20241;-84
2021/04/22 02:40:38;;;;;;;5.37;4.50;;;;;;;13.04;53.52;95561.72;5006866;28;20191;-84
2021/04/22 02:43:07;;;;;;;5.50;5.00;;;;;;;13.02;53.28;95556.75;5011900;28;20205;-83
2021/04/22 02:45:36;;;;;;;5.80;5.30;;;;;;;12.99;53.62;95561.50;5026814;28;20796;-84
2021/04/22 02:48:04;;;;;;;5.00;4.60;;;;;;;13.03;54.00;95560.13;5000922;28;20218;-82
2021/04/22 02:50:33;;;;;;;5.80;5.30;;;;;;;13.05;53.61;95561.53;5000368;28;20741;-83
2021/04/22 02:52:59;;;;;;;5.80;5.30;;;;;;;13.03;54.09;95558.34;5013526;28;20582;-84
2021/04/22 02:55:25;;;;;;;5.33;4.90;;;;;;;13.05;54.64;95568.50;5009465;28;20255;-85
2021/04/22 02:57:51;;;;;;;5.90;5.30;;;;;;;13.05;54.60;95561.53;4994284;28;20223;-84
2021/04/22 03:00:23;;;;;;;6.50;5.90;;;;;;;12.99;54.44;95557.13;4998224;28;20195;-85
2021/04/22 03:02:52;;;;;;;6.17;5.63;;;;;;;12.99;54.83;95567.47;5013399;28;20199;-86
2021/04/22 03:05:19;;;;;;;6.47;5.87;;;;;;;13.01;55.08;95567.28;5009742;28;20196;-86
2021/04/22 03:07:46;;;;;;;6.07;5.57;;;;;;;12.92;55.64;95569.22;4993516;28;20228;-87
2021/04/22 03:10:18;;;;;;;6.63;6.03;;;;;;;12.94;55.70;95571.59;4995348;28;20321;-85
2021/04/22 03:12:44;;;;;;;6.43;5.90;;;;;;;12.93;55.84;95570.00;5013547;28;20274;-84
2021/04/22 03:15:11;;;;;;;6.27;5.77;;;;;;;12.94;56.26;95577.56;5010692;28;20625;-84
2021/04/22 03:17:37;;;;;;;6.77;6.07;;;;;;;12.90;56.29;95573.78;4993433;28;20282;-84
2021/04/22 03:20:05;;;;;;;6.63;6.03;;;;;;;12.90;56.76;95581.53;4994806;28;20282;-84
2021/04/22 03:22:38;;;;;;;6.57;6.00;;;;;;;12.90;56.44;95580.72;5013836;28;20203;-84
2021/04/22 03:25:05;;;;;;;7.70;5.90;;;;;;;12.90;56.98;95589.28;5012308;28;20215;-84
2021/04/22 03:27:32;;;;;;;6.50;5.90;;;;;;;12.89;56.83;95592.88;4994603;28;20601;-84
2021/04/22 03:29:58;;;;;;;6.67;6.07;;;;;;;12.85;57.31;95596.03;5011992;28;20206;-86
2021/04/22 03:32:27;;;;;;;6.60;5.97;;;;;;;12.76;57.79;95613.44;5026470;28;20206;-86
2021/04/22 03:34:56;;;;;;;9.20;6.40;;;;;;;12.56;59.13;95613.31;5014367;28;20223;-86
2021/04/22 03:37:27;;;;;;;6.93;6.33;;;;;;;12.39;60.48;95614.56;5013173;28;20781;-87
2021/04/22 03:39:54;;;;;;;7.30;6.70;;;;;;;12.28;61.03;95618.47;4993914;28;20209;-86
2021/04/22 03:42:20;;;;;;;7.03;6.33;;;;;;;12.31;61.11;95619.88;5015893;28;20286;-84
2021/04/22 03:44:48;;;;;;;7.60;6.90;;;;;;;12.22;61.42;95616.63;5033179;28;20205;-83
2021/04/22 03:47:15;;;;;;;9.57;8.57;;;;;;;12.00;63.01;95622.75;5014029;28;20230;-83
2021/04/22 03:49:43;;;;;;;11.10;8.70;;;;;;;11.98;62.01;95615.19;5012966;28;20279;-84
2021/04/22 03:52:09;;;;;;;9.80;8.80;;;;;;;11.89;62.73;95620.69;5001890;28;20210;-84
2021/04/22 03:54:35;;;;;;;9.80;8.90;;;;;;;11.74;63.01;95618.09;4995878;28;20598;-84
2021/04/22 03:57:04;;;;;;;9.73;8.73;;;;;;;11.73;63.42;95619.09;5013754;28;20226;-84
2021/04/22 03:59:30;;;;;;;9.90;8.90;;;;;;;11.69;63.43;95620.44;5011762;28;20213;-84
2021/04/22 04:01:56;;;;;;;11.67;9.67;;;;;;;11.56;64.12;95620.28;5013325;28;20291;-83
2021/04/22 04:04:22;;;;;;;9.97;9.07;;;;;;;11.56;63.73;95620.28;5012498;28;20226;-83
2021/04/22 04:06:48;;;;;;;9.90;9.00;;;;;;;11.61;63.62;95628.28;4993641;28;20269;-82
2021/04/22 04:09:14;;;;;;;10.00;9.00;;;;;;;11.63;63.46;95619.38;4993800;28;20204;-82
2021/04/22 04:11:40;;;;;;;10.60;9.50;;;;;;;11.65;63.91;95614.84;5010712;28;20297;-84
2021/04/22 04:14:07;;;;;;;10.17;9.17;;;;;;;11.69;63.70;95616.09;5027922;28;20202;-82
2021/04/22 04:16:33;;;;;;;10.60;9.50;;;;;;;11.72;63.26;95620.88;5017348;28;20215;-84
2021/04/22 04:18:59;;;;;;;9.23;8.37;;;;;;;11.76;63.10;95623.91;5010721;28;20293;-83
2021/04/22 04:21:29;;;;;;;9.00;8.20;;;;;;;11.78;63.05;95611.63;5012207;28;20765;-85
2021/04/22 04:23:55;;;;;;;11.50;9.50;;;;;;;11.78;63.26;95614.22;5004974;28;20202;-83
2021/04/22 04:26:21;;;;;;;23.23;19.80;;;;;;;11.85;63.15;95611.72;4993292;28;20703;-84
2021/04/22 04:28:50;;;;;;;20.27;17.40;;;;;;;11.77;63.90;95620.34;5007307;28;20203;-83
2021/04/22 04:35:29;;;;;;;;;;;;;;;;;;;;;
2021/04/22 04:38:13;;;;;;;;;;;;;;;;;;;;;
2021/04/22 04:40:39;;;;;;;10.87;9.87;;;;;;;11.82;63.53;95643.81;5012044;28;20293;-84
2021/04/22 04:43:05;;;;;;;10.07;8.93;;;;;;;11.84;63.38;95638.47;5006001;28;20207;-84
2021/04/22 04:45:31;;;;;;;11.23;9.63;;;;;;;11.77;65.16;95639.19;5009720;28;20198;-82
2021/04/22 04:47:57;;;;;;;11.33;9.87;;;;;;;11.80;63.85;95645.78;5010389;28;20285;-81
2021/04/22 04:50:23;;;;;;;10.70;9.60;;;;;;;11.86;63.26;95652.00;5009991;28;20230;-82
2021/04/22 04:52:49;;;;;;;12.43;10.40;;;;;;;11.87;63.95;95654.41;5009750;28;20264;-82
2021/04/22 04:55:16;;;;;;;10.80;9.73;;;;;;;11.90;63.53;95660.97;4995984;28;20223;-82
2021/04/22 04:57:43;;;;;;;11.03;9.90;;;;;;;11.87;64.30;95656.19;5005237;28;20226;-82
2021/04/22 05:00:15;;;;;;;10.93;9.73;;;;;;;11.92;63.38;95661.59;5009955;28;20328;-84
2021/04/22 05:02:41;;;;;;;21.03;18.83;;;;;;;11.87;63.93;95656.97;5008897;28;20203;-82
2021/04/22 05:05:08;;;;;;;14.30;12.90;;;;;;;11.96;63.44;95663.63;4991635;28;20573;-83
2021/04/22 05:07:34;;;;;;;13.20;11.80;;;;;;;12.04;63.00;95676.41;5010015;28;20234;-82
2021/04/22 05:10:01;;;;;;;10.90;9.80;;;;;;;12.10;63.69;95677.47;5008888;28;20719;-84
2021/04/22 05:12:27;;;;;;;11.47;9.87;;;;;;;12.03;64.05;95690.28;5006077;28;20254;-83
2021/04/22 05:14:53;;;;;;;10.57;9.43;;;;;;;11.91;63.85;95681.44;5009907;28;20296;-81
2021/04/22 05:17:19;;;;;;;10.13;9.13;;;;;;;11.84;64.67;95701.19;5009329;28;20699;-82
2021/04/22 05:19:45;;;;;;;9.97;9.07;;;;;;;11.88;64.03;95705.03;5009848;28;20709;-81
2021/04/22 05:22:12;;;;;;;10.33;9.33;;;;;;;11.93;63.67;95719.97;5006929;28;20205;-82
2021/04/22 05:24:38;;;;;;;10.43;9.33;;;;;;;11.96;63.39;95707.47;5009812;28;20214;-82
2021/04/22 05:27:04;;;;;;;11.50;10.33;;;;;;;11.99;63.09;95712.28;5010250;28;20230;-82
2021/04/22 05:29:31;;;;;;;12.90;10.40;;;;;;;12.03;63.04;95713.53;5010657;28;20210;-83
2021/04/22 05:31:57;;;;;;;10.93;9.83;;;;;;;12.06;62.69;95709.78;5009184;28;20687;-84
2021/04/22 05:34:23;;;;;;;11.17;10.00;;;;;;;12.09;62.72;95717.16;5009979;28;20284;-83
2021/04/22 05:36:49;;;;;;;10.87;9.77;;;;;;;12.10;63.01;95716.19;5010231;28;20226;-81
2021/04/22 05:39:18;;;;;;;11.60;10.50;;;;;;;12.12;62.66;95718.59;5009877;28;20226;-81
2021/04/22 05:41:44;;;;;;;13.97;11.00;;;;;;;12.17;62.42;95713.66;5010500;28;20297;-83
2021/04/22 05:44:13;;;;;;;11.73;10.53;;;;;;;12.19;62.26;95716.84;5010449;28;20203;-83
2021/04/22 05:46:40;;;;;;;11.67;10.47;;;;;;;12.19;62.20;95717.66;5010523;28;20238;-83
2021/04/22 05:49:07;;;;;;;12.57;10.00;;;;;;;12.17;62.38;95714.44;5003279;28;20481;-82
2021/04/22 05:51:33;;;;;;;12.73;10.60;;;;;;;12.24;61.70;95722.28;4993763;28;20199;-83
2021/04/22 05:54:01;;;;;;;14.83;10.63;;;;;;;12.28;62.07;95718.34;4999348;28;20254;-84
2021/04/22 05:56:27;;;;;;;10.70;9.60;;;;;;;12.27;61.91;95721.91;5009097;28;20229;-82
2021/04/22 05:58:54;;;;;;;10.63;9.63;;;;;;;12.25;61.77;95729.84;5010928;28;20738;-83
2021/04/22 06:01:20;;;;;;;11.70;10.50;;;;;;;12.29;61.75;95732.88;5011095;28;20666;-82
2021/04/22 06:03:46;;;;;;;10.53;9.50;;;;;;;12.29;62.08;95728.50;5011584;28;20199;-82
2021/04/22 06:06:12;;;;;;;12.77;10.17;;;;;;;12.33;61.89;95734.06;5011319;28;20242;-81
2021/04/22 06:08:38;;;;;;;14.93;10.23;;;;;;;12.36;62.10;95733.72;5010436;28;20610;-81
2021/04/22 06:11:04;;;;;;;12.10;10.60;;;;;;;12.40;62.09;95738.34;5010181;28;20265;-83
2021/04/22 06:13:33;;;;;;;10.83;9.73;;;;;;;12.37;61.95;95737.88;5000105;28;20290;-82
2021/04/22 06:15:59;;;;;;;10.87;9.50;;;;;;;12.43;61.92;95740.53;5007399;28;20231;-82
2021/04/22 06:18:25;;;;;;;11.23;10.10;;;;;;;12.48;62.70;95734.84;4990627;28;20200;-83
2021/04/22 06:20:53;;;;;;;11.10;10.00;;;;;;;12.56;62.42;95720.97;4995552;28;20195;-82
2021/04/22 06:23:19;;;;;;;10.97;9.87;;;;;;;12.66;62.02;95737.00;5010896;28;20270;-82
2021/04/22 06:25:45;;;;;;;10.93;9.90;;;;;;;12.68;62.04;95735.03;5011297;28;20609;-82
2021/04/22 06:28:11;;;;;;;11.20;10.10;;;;;;;12.82;61.74;95734.13;5011565;28;20391;-83
2021/04/22 06:30:38;;;;;;;14.07;10.83;;;;;;;12.86;61.77;95742.31;5016241;28;20360;-83
2021/04/22 06:33:06;;;;;;;11.90;10.63;;;;;;;12.91;61.27;95745.13;5013728;28;20198;-82
2021/04/22 06:35:32;;;;;;;12.07;10.87;;;;;;;12.95;60.49;95748.94;5013573;28;20226;-82
2021/04/22 06:37:59;;;;;;;11.27;10.17;;;;;;;12.95;60.44;95749.75;5013713;28;20309;-85
2021/04/22 06:40:26;;;;;;;12.80;11.50;;;;;;;13.06;59.61;95749.25;5013163;28;20207;-83
2021/04/22 06:42:54;;;;;;;13.00;11.70;;;;;;;13.20;59.87;95742.41;5013019;28;20209;-83
2021/04/22 06:45:22;;;;;;;13.37;11.80;;;;;;;13.32;59.35;95750.44;5013724;28;20209;-83
2021/04/22 06:47:49;;;;;;;14.33;11.90;;;;;;;13.40;58.60;95745.94;4998023;28;20231;-84
2021/04/22 06:50:18;;;;;;;13.00;11.70;;;;;;;13.46;58.91;95749.56;4994640;28;20224;-84
2021/04/22 06:55:28;;;;;;;13.40;12.07;;;;;;;13.56;57.61;95751.78;4975526;28;20711;-84
2021/04/22 06:57:54;;;;;;;13.30;11.83;;;;;;;13.48;57.68;95750.94;4994513;28;20223;-83
2021/04/22 07:00:23;;;;;;;13.73;12.33;;;;;;;13.44;58.72;95748.94;5010590;28;20203;-83
2021/04/22 07:02:50;;;;;;;13.87;12.47;;;;;;;13.31;60.47;95759.19;5013884;28;20207;-84
2021/04/22 07:05:17;;;;;;;14.37;12.97;;;;;;;13.24;59.62;95755.75;5015092;28;20840;-85
2021/04/22 07:07:44;;;;;;;14.47;13.03;;;;;;;13.19;60.22;95766.66;5013692;28;20218;-83
2021/04/22 07:10:12;;;;;;;13.67;12.47;;;;;;;13.29;60.23;95769.72;5012313;28;20234;-83
2021/04/22 07:12:39;;;;;;;13.83;12.60;;;;;;;13.48;60.45;95776.81;5012685;28;20234;-83
2021/04/22 07:15:10;;;;;;;14.53;13.03;;;;;;;13.58;59.85;95779.06;5012717;28;20215;-84
2021/04/22 07:17:36;;;;;;;13.60;12.30;;;;;;;13.65;59.35;95774.72;5013170;28;20222;-83
2021/04/22 07:20:04;;;;;;;13.73;12.43;;;;;;;13.67;58.73;95782.28;5012493;28;20206;-84
2021/04/22 07:22:30;;;;;;;13.90;12.23;;;;;;;13.76;58.38;95776.78;5011244;28;20206;-83
2021/04/22 07:24:56;;;;;;;13.37;12.07;;;;;;;13.69;59.59;95783.69;5013490;28;20233;-81
2021/04/22 07:27:23;;;;;;;13.10;11.80;;;;;;;13.83;57.86;95785.38;5015841;28;20629;-82
2021/04/22 07:29:50;;;;;;;14.30;12.03;;;;;;;13.85;58.27;95792.16;5015242;28;20207;-84
2021/04/22 07:32:16;;;;;;;13.80;12.40;;;;;;;13.92;57.89;95796.34;5015558;28;20195;-83
2021/04/22 07:34:46;;;;;;;14.23;12.83;;;;;;;14.06;57.04;95800.59;5015830;28;20729;-84
2021/04/22 07:37:16;;;;;;;13.30;11.97;;;;;;;14.24;56.56;95797.47;5015192;28;20227;-83
2021/04/22 07:39:43;;;;;;;13.50;12.20;;;;;;;14.33;56.18;95800.72;5014411;28;20234;-83
2021/04/22 07:42:09;;;;;;;13.77;12.43;;;;;;;14.37;55.98;95797.56;5014993;28;20690;-83
2021/04/22 07:44:35;;;;;;;13.37;12.03;;;;;;;14.43;55.72;95796.00;5014632;28;20217;-83
2021/04/22 07:47:03;;;;;;;13.77;12.57;;;;;;;14.44;55.72;95800.97;5014873;28;20319;-83
2021/04/22 07:49:30;;;;;;;13.70;12.40;;;;;;;14.64;54.98;95805.41;5015202;28;20203;-84
2021/04/22 07:51:56;;;;;;;13.50;12.30;;;;;;;14.69;54.87;95809.00;5015515;28;20210;-82
2021/04/22 07:54:22;;;;;;;12.97;11.80;;;;;;;14.78;53.97;95807.06;5014631;28;20206;-84
2021/04/22 07:56:48;;;;;;;13.83;12.43;;;;;;;14.84;53.60;95811.44;5016478;28;20242;-85
2021/04/22 07:59:14;;;;;;;14.33;12.93;;;;;;;14.85;53.41;95815.63;5014912;28;20195;-84
2021/04/22 08:01:40;;;;;;;13.87;12.40;;;;;;;15.11;53.51;95813.06;5014116;28;20226;-84
2021/04/22 08:04:07;;;;;;;13.13;11.83;;;;;;;15.09;52.73;95815.06;5014558;28;20198;-84
2021/04/22 08:06:33;;;;;;;13.53;12.30;;;;;;;15.19;53.24;95807.69;5015059;28;20721;-82
2021/04/22 08:09:00;;;;;;;13.47;12.10;;;;;;;15.30;53.74;95818.47;5013998;28;20218;-84
2021/04/22 08:11:26;;;;;;;12.90;11.33;;;;;;;15.53;51.72;95813.66;5013214;28;20226;-84
2021/04/22 08:13:52;;;;;;;14.43;12.13;;;;;;;15.48;50.65;95810.88;5015645;28;20250;-84
2021/04/22 08:16:20;;;;;;;13.23;11.93;;;;;;;15.67;50.61;95819.66;5013550;28;20241;-86
2021/04/22 08:18:47;;;;;;;13.10;11.90;;;;;;;15.86;50.62;95818.81;5015025;28;20266;-82
2021/04/22 08:21:18;;;;;;;13.07;11.77;;;;;;;16.00;50.38;95822.97;5014554;28;20703;-86
2021/04/22 08:23:44;;;;;;;13.37;11.97;;;;;;;16.12;49.61;95817.97;5013493;28;20671;-86
2021/04/22 08:26:12;;;;;;;12.77;11.57;;;;;;;16.14;49.94;95828.94;5012369;28;20309;-85
2021/04/22 08:28:41;;;;;;;13.20;11.87;;;;;;;16.02;50.00;95820.19;5014727;28;20210;-86
2021/04/22 08:31:09;;;;;;;15.13;12.43;;;;;;;15.78;51.17;95832.00;5015332;28;20206;-86
2021/04/22 08:33:37;;;;;;;13.40;12.10;;;;;;;15.64;50.25;95827.84;5014053;28;20203;-86
2021/04/22 08:36:08;;;;;;;13.03;11.83;;;;;;;15.59;51.21;95832.88;5013800;28;20227;-87
2021/04/22 08:38:35;;;;;;;13.20;12.00;;;;;;;15.49;50.95;95838.41;5014936;28;20207;-86
2021/04/22 08:41:05;;;;;;;14.27;12.80;;;;;;;15.35;51.12;95842.81;5014883;28;20290;-86
2021/04/22 08:43:47;;;;;;;13.70;12.50;;;;;;;15.09;52.46;95838.41;5014356;28;20290;-87
2021/04/22 08:46:14;;;;;;;14.40;12.90;;;;;;;15.17;52.86;95834.84;5013786;28;20246;-86
2021/04/22 08:48:42;;;;;;;13.93;12.60;;;;;;;15.13;53.58;95839.59;5013740;28;20206;-84
2021/04/22 08:51:11;;;;;;;14.93;13.33;;;;;;;15.07;53.40;95845.56;5012824;28;20286;-84
2021/04/22 08:53:40;;;;;;;14.43;13.03;;;;;;;15.15;53.19;95848.00;5013782;28;20198;-85
2021/04/22 08:56:08;;;;;;;14.10;12.80;;;;;;;15.42;53.00;95837.59;5014839;28;20293;-84
2021/04/22 08:58:34;;;;;;;15.03;13.50;;;;;;;15.80;52.92;95840.41;5015666;28;20241;-84
2021/04/22 09:01:10;;;;;;;14.67;13.17;;;;;;;15.94;52.09;95851.56;5012978;28;20285;-84
2021/04/22 09:03:44;;;;;;;14.17;12.73;;;;;;;16.26;51.24;95845.50;5013052;28;20301;-86
2021/04/22 09:06:11;;;;;;;14.60;13.20;;;;;;;16.49;50.52;95850.19;5010782;28;20733;-85
2021/04/22 09:08:44;;;;;;;14.80;13.40;;;;;;;16.65;49.68;95854.16;5005256;28;20209;-85
2021/04/22 09:11:13;;;;;;;13.65;12.45;;;;;;;16.61;49.13;95852.94;5008398;28;20229;-85
2021/04/22 09:13:41;;;;;;;14.35;12.50;;;;;;;16.41;49.90;95855.63;5009480;28;20207;-86
2021/04/22 09:16:10;;;;;;;14.70;13.30;;;;;;;16.27;50.49;95841.09;5010434;28;20855;-86
2021/04/22 09:18:41;;;;;;;13.73;12.43;;;;;;;16.15;51.26;95853.94;5010899;28;20260;-86
2021/04/22 09:21:20;;;;;;;14.90;13.50;;;;;;;16.00;50.79;95856.75;5001137;28;20569;-86
2021/04/22 09:24:00;;;;;;;14.00;12.70;;;;;;;15.97;50.62;95851.94;4990992;28;20227;-83
2021/04/22 09:26:38;;;;;;;14.30;12.90;;;;;;;16.04;50.38;95852.75;4990960;28;20235;-84
2021/04/22 09:29:05;;;;;;;13.93;12.52;;;;;;;15.88;51.23;95847.97;4991765;28;20789;-85
2021/04/22 09:31:32;;;;;;;14.80;13.50;;;;;;;15.66;50.94;95855.19;4991724;28;20828;-86
2021/04/22 09:34:07;;;;;;;14.55;13.18;;;;;;;15.71;51.40;95847.63;4991267;28;20214;-83
2021/04/22 09:36:45;;;;;;;14.77;13.35;;;;;;;15.90;51.13;95851.19;4990276;28;20253;-83
2021/04/22 09:39:27;;;;;;;15.43;13.90;;;;;;;15.98;51.30;95856.13;4990890;28;20254;-84
2021/04/22 09:41:56;;;;;;;14.50;13.20;;;;;;;15.96;50.93;95858.16;4992163;28;20203;-85
2021/04/22 09:44:24;;;;;;;15.33;13.73;;;;;;;15.93;50.49;95855.19;4991548;28;20679;-85
2021/04/22 09:47:06;;;;;;;15.43;14.03;;;;;;;16.12;50.72;95851.72;4991214;28;20463;-85
2021/04/22 09:49:50;;;;;;;15.43;13.63;;;;;;;16.04;51.22;95857.13;4991449;28;20241;-86
2021/04/22 09:52:21;;;;;;;15.50;13.82;;;;;;;16.18;50.76;95851.69;4993955;28;20207;-86
2021/04/22 09:54:53;;;;;;;15.20;13.83;;;;;;;16.22;49.80;95846.91;4993397;28;20239;-86
2021/04/22 09:57:27;;;;;;;16.27;14.35;;;;;;;16.11;50.76;95848.34;4994163;28;20243;-83
2021/04/22 09:59:54;;;;;;;17.92;14.15;;;;;;;16.30;50.48;95846.69;4993528;28;20221;-82
2021/04/22 10:02:21;;;;;;;15.90;14.50;;;;;;;16.45;49.12;95846.41;4993776;28;20208;-84
2021/04/22 10:04:50;;;;;;;16.70;13.75;;;;;;;16.43;48.94;95851.03;4996960;28;20195;-80
2021/04/22 10:07:25;;;;;;;14.60;13.27;;;;;;;16.28;49.12;95853.09;4999077;28;20246;-85
2021/04/22 10:09:53;;;;;;;16.13;14.63;;;;;;;16.28;48.18;95858.28;4991981;28;20234;-85
2021/04/22 10:12:27;;;;;;;16.35;14.65;;;;;;;16.22;49.56;95862.47;5001796;28;20203;-85
2021/04/22 10:14:56;;;;;;;15.27;13.88;;;;;;;16.11;49.80;95865.72;5020608;28;20226;-85
2021/04/22 10:17:23;;;;;;;16.50;14.90;;;;;;;16.14;49.13;95858.31;5021095;28;20268;-84
2021/04/22 10:20:00;;;;;;;15.52;14.13;;;;;;;16.40;48.65;95854.81;5021666;28;20256;-85
2021/04/22 10:22:28;;;;;;;15.65;14.25;;;;;;;16.92;48.52;95853.03;5007887;28;20209;-84
2021/04/22 10:24:56;;;;;;;16.23;14.73;;;;;;;17.40;46.63;95848.06;5019434;28;20206;-84
2021/04/22 10:27:27;;;;;;;16.40;14.82;;;;;;;17.74;45.56;95844.22;5013702;28;20325;-83
2021/04/22 10:29:54;;;;;;;16.95;15.38;;;;;;;17.49;46.27;95846.03;5012943;28;20655;-85
2021/04/22 10:32:28;;;;;;;17.77;15.85;;;;;;;17.31;46.36;95840.75;5012823;28;20670;-82
2021/04/22 10:34:58;;;;;;;17.50;15.90;;;;;;;17.40;45.92;95847.28;5013147;28;20233;-85
2021/04/22 10:37:25;;;;;;;16.45;14.95;;;;;;;17.64;45.89;95845.69;5013716;28;20229;-83
2021/04/22 10:39:56;;;;;;;17.08;15.57;;;;;;;17.31;46.98;95849.38;5015689;28;20235;-83
2021/04/22 10:42:24;;;;;;;17.25;15.55;;;;;;;17.34;46.84;95858.53;5015305;28;20633;-85
2021/04/22 10:44:53;;;;;;;17.25;15.55;;;;;;;17.12;46.91;95863.31;5015590;28;20207;-81
2021/04/22 10:47:20;;;;;;;18.05;16.33;;;;;;;17.19;46.50;95857.03;5017068;28;20301;-82
2021/04/22 10:49:47;;;;;;;16.30;14.90;;;;;;;17.19;47.07;95864.84;5017649;28;20198;-81
2021/04/22 10:52:14;;;;;;;17.67;16.08;;;;;;;17.52;46.47;95850.78;5015797;28;20632;-85
2021/04/22 10:54:41;;;;;;;17.48;15.77;;;;;;;17.38;45.64;95851.91;5014661;28;20199;-84
2021/04/22 10:57:10;;;;;;;17.00;15.40;;;;;;;17.39;45.40;95850.91;5014770;28;20226;-81
2021/04/22 10:59:37;;;;;;;18.10;16.02;;;;;;;17.54;45.02;95853.97;5014062;28;20195;-81
2021/04/22 11:02:22;;;;;;;17.77;15.50;;;;;;;17.72;44.41;95854.03;5014197;28;20206;-81
2021/04/22 11:04:57;;;;;;;17.65;15.98;;;;;;;17.85;43.39;95851.34;5014746;28;20262;-84
2021/04/22 11:07:26;;;;;;;17.15;15.55;;;;;;;18.06;43.68;95846.72;5013695;28;20313;-83
2021/04/22 11:09:54;;;;;;;17.05;15.45;;;;;;;18.10;44.03;95859.09;5012696;28;20297;-83
2021/04/22 11:12:23;;;;;;;17.30;15.60;;;;;;;17.86;44.09;95859.94;5013332;28;20206;-84
2021/04/22 11:14:52;;;;;;;17.02;15.27;;;;;;;17.86;44.91;95854.72;5013609;28;20202;-86
2021/04/22 11:17:21;;;;;;;17.80;16.05;;;;;;;17.51;45.24;95849.97;5013497;28;20245;-83
2021/04/22 11:19:50;;;;;;;17.38;15.88;;;;;;;17.52;45.23;95848.97;5013612;28;20654;-86
2021/04/22 11:22:20;;;;;;;18.55;15.55;;;;;;;17.82;44.71;95846.56;5014128;28;20291;-84
2021/04/22 11:24:55;;;;;;;17.13;15.32;;;;;;;18.08;43.34;95837.69;5012921;28;20617;-83
2021/04/22 11:27:22;;;;;;;17.50;15.75;;;;;;;17.94;43.92;95850.03;5012173;28;20210;-84
2021/04/22 11:29:51;;;;;;;18.40;16.70;;;;;;;17.69;43.97;95844.06;5011798;28;20203;-82
2021/04/22 11:32:22;;;;;;;18.15;16.35;;;;;;;17.72;43.95;95840.22;5012614;28;20199;-85
2021/04/22 11:34:51;;;;;;;18.35;16.75;;;;;;;17.87;45.13;95841.50;5012563;28;20203;-83
2021/04/22 11:37:22;;;;;;;19.50;17.60;;;;;;;17.73;43.80;95836.59;5013045;28;20229;-82
2021/04/22 11:39:49;;;;;;;18.50;16.80;;;;;;;17.58;44.47;95842.13;5012173;28;20230;-86